Time;durP1;ratioP1;P1;durP2;ratioP2;P2;SDS_P1;SDS_P2;PMS_P1;PMS_P2;Temp;Humidity;BMP_temperature;BMP_pressure;BME280_temperature;BME280_humidity;BME280_pressure;Samples;Min_cycle;Max_cycle;Signal;HPM_P1;HPM_P2
2021/05/22 00:01:31;;;;;;;3.53;1.63;;;11.10;99.90;;;;;;5045255;28;20942;-50
2021/05/22 00:03:58;;;;;;;4.30;1.10;;;11.20;99.90;;;;;;5043603;28;20214;-50
2021/05/22 00:06:25;;;;;;;3.80;0.73;;;11.20;99.90;;;;;;5045303;28;20198;-50
2021/05/22 00:08:52;;;;;;;3.80;1.10;;;11.20;99.90;;;;;;5045126;28;20697;-50
2021/05/22 00:11:18;;;;;;;6.20;1.00;;;11.30;99.90;;;;;;5020174;28;732522;-50
2021/05/22 00:13:45;;;;;;;2.10;0.60;;;11.30;99.90;;;;;;5043395;28;20808;-49
2021/05/22 00:16:12;;;;;;;6.63;0.97;;;11.30;99.90;;;;;;5044206;28;20717;-49
2021/05/22 00:18:39;;;;;;;4.03;0.93;;;11.20;99.90;;;;;;5041864;28;20253;-50
2021/05/22 00:21:06;;;;;;;5.77;2.00;;;11.30;99.90;;;;;;5046392;28;20644;-49
2021/05/22 00:23:33;;;;;;;2.20;0.87;;;11.20;99.90;;;;;;5039660;28;20589;-50
2021/05/22 00:25:59;;;;;;;3.50;1.00;;;11.20;99.90;;;;;;5046426;28;20288;-50
2021/05/22 00:28:26;;;;;;;7.50;1.23;;;11.20;99.90;;;;;;5043718;28;20739;-51
2021/05/22 00:30:53;;;;;;;4.37;0.80;;;11.20;99.90;;;;;;5046029;28;20317;-50
2021/05/22 00:33:20;;;;;;;3.20;1.03;;;11.20;99.90;;;;;;5043468;28;20225;-50
2021/05/22 00:35:46;;;;;;;9.77;0.83;;;11.20;99.90;;;;;;5045152;28;21019;-49
2021/05/22 00:38:13;;;;;;;3.93;1.27;;;11.20;99.90;;;;;;5040991;28;20730;-49
2021/05/22 00:40:40;;;;;;;6.60;1.83;;;11.30;99.90;;;;;;5043600;28;20217;-49
2021/05/22 00:43:07;;;;;;;3.87;1.00;;;11.30;99.90;;;;;;5041921;28;20714;-49
2021/05/22 00:45:35;;;;;;;9.07;1.10;;;11.30;99.90;;;;;;5044246;28;20335;-50
2021/05/22 00:48:03;;;;;;;4.23;0.93;;;11.40;99.90;;;;;;5043984;28;20205;-49
2021/05/22 00:50:36;;;;;;;3.33;0.60;;;11.40;99.90;;;;;;5045786;28;20217;-49
2021/05/22 00:53:05;;;;;;;3.60;1.13;;;11.40;99.90;;;;;;5041269;28;20315;-49
2021/05/22 00:55:33;;;;;;;3.70;0.80;;;11.40;99.90;;;;;;5049210;28;20202;-49
2021/05/22 00:58:01;;;;;;;4.63;0.67;;;11.40;99.90;;;;;;5045811;28;20291;-50
2021/05/22 01:00:46;;;;;;;3.80;0.80;;;11.40;99.90;;;;;;5044690;28;20581;-50
2021/05/22 01:03:36;;;;;;;4.07;1.17;;;11.40;99.90;;;;;;5043917;28;20289;-50
2021/05/22 01:06:17;;;;;;;3.60;0.77;;;11.40;99.90;;;;;;5045534;28;20224;-50
2021/05/22 01:08:47;;;;;;;3.30;0.90;;;11.40;99.90;;;;;;5042532;28;20279;-49
2021/05/22 01:11:19;;;;;;;4.63;0.80;;;11.40;99.90;;;;;;5044755;28;20626;-49
2021/05/22 01:14:15;;;;;;;5.30;0.90;;;11.40;99.90;;;;;;5042428;28;20767;-49
2021/05/22 01:16:43;;;;;;;3.00;1.00;;;11.40;99.90;;;;;;5036661;28;20206;-49
2021/05/22 01:19:23;;;;;;;6.33;0.80;;;11.30;99.90;;;;;;5043335;28;20451;-49
2021/05/22 01:21:51;;;;;;;2.63;0.80;;;11.30;99.90;;;;;;5044569;28;20309;-50
2021/05/22 01:24:22;;;;;;;4.03;0.87;;;11.30;99.90;;;;;;5040705;28;20227;-50
2021/05/22 01:26:50;;;;;;;3.83;0.70;;;11.30;99.90;;;;;;5046172;28;20234;-50
2021/05/22 01:29:18;;;;;;;3.40;1.70;;;11.30;99.90;;;;;;5043605;28;20262;-50
2021/05/22 01:31:45;;;;;;;2.23;0.60;;;11.30;99.90;;;;;;5045715;28;20332;-51
2021/05/22 01:34:12;;;;;;;5.30;0.83;;;11.30;99.90;;;;;;5043644;28;20301;-50
2021/05/22 01:36:39;;;;;;;3.40;0.57;;;11.30;99.90;;;;;;5041663;28;20687;-51
2021/05/22 01:39:06;;;;;;;5.73;0.80;;;11.30;99.90;;;;;;5042025;28;20269;-48
2021/05/22 01:41:33;;;;;;;3.27;1.07;;;11.20;99.90;;;;;;5041851;28;20302;-49
2021/05/22 01:44:03;;;;;;;2.33;0.70;;;11.20;99.90;;;;;;5045228;28;20297;-50
2021/05/22 01:46:32;;;;;;;1.63;0.40;;;11.30;99.90;;;;;;5042791;28;20214;-50
2021/05/22 01:48:59;;;;;;;1.80;0.73;;;11.30;99.90;;;;;;5043469;28;20291;-50
2021/05/22 01:51:27;;;;;;;4.20;0.70;;;11.30;99.90;;;;;;5046260;28;20721;-49
2021/05/22 01:53:55;;;;;;;2.00;0.80;;;11.20;99.90;;;;;;5040597;28;20303;-49
2021/05/22 01:56:22;;;;;;;3.30;0.87;;;11.20;99.90;;;;;;5043980;28;20257;-50
2021/05/22 01:58:49;;;;;;;3.63;1.10;;;11.30;99.90;;;;;;5044277;28;20231;-50
2021/05/22 02:01:16;;;;;;;2.77;0.50;;;11.20;99.90;;;;;;5044897;28;20294;-50
2021/05/22 02:03:47;;;;;;;2.83;1.00;;;11.20;99.90;;;;;;5041672;28;20245;-49
2021/05/22 02:06:25;;;;;;;2.67;0.67;;;11.20;99.90;;;;;;5046182;28;20693;-50
2021/05/22 02:08:56;;;;;;;1.50;0.67;;;11.20;99.90;;;;;;5041668;28;20301;-50
2021/05/22 02:11:26;;;;;;;0.97;0.73;;;11.10;99.90;;;;;;5043103;28;20263;-50
2021/05/22 02:13:56;;;;;;;4.93;0.80;;;11.10;99.90;;;;;;5043768;28;20212;-50
2021/05/22 02:16:27;;;;;;;2.97;0.70;;;11.20;99.90;;;;;;5044129;28;20253;-49
2021/05/22 02:18:55;;;;;;;3.90;0.80;;;11.10;99.90;;;;;;5047351;28;20203;-50
2021/05/22 02:21:29;;;;;;;2.47;0.80;;;11.10;99.90;;;;;;5048291;28;20241;-50
2021/05/22 02:23:56;;;;;;;3.70;0.60;;;11.10;99.90;;;;;;5042892;28;20286;-50
2021/05/22 02:26:26;;;;;;;3.23;0.93;;;11.10;99.90;;;;;;5045248;28;20411;-49
2021/05/22 02:28:54;;;;;;;2.63;0.90;;;11.10;99.90;;;;;;5042509;28;20314;-50
2021/05/22 02:31:26;;;;;;;4.93;0.60;;;11.00;99.90;;;;;;5044616;28;20675;-49
2021/05/22 02:33:57;;;;;;;4.67;0.97;;;11.00;99.90;;;;;;5042154;28;20647;-50
2021/05/22 02:36:25;;;;;;;2.70;0.80;;;11.00;99.90;;;;;;5042859;28;20204;-49
2021/05/22 02:38:53;;;;;;;2.13;0.50;;;11.00;99.90;;;;;;5040883;28;20318;-50
2021/05/22 02:41:21;;;;;;;3.57;0.87;;;11.00;99.90;;;;;;5046369;28;20273;-50
2021/05/22 02:43:52;;;;;;;1.63;1.10;;;11.00;99.90;;;;;;5047520;28;20260;-50
2021/05/22 02:46:20;;;;;;;1.03;0.50;;;11.00;99.90;;;;;;5046633;28;20199;-50
2021/05/22 02:48:48;;;;;;;3.40;0.57;;;10.90;99.90;;;;;;5045502;28;20789;-50
2021/05/22 02:51:19;;;;;;;0.80;0.40;;;11.00;99.90;;;;;;5046018;28;20212;-51
2021/05/22 02:53:48;;;;;;;2.67;0.87;;;11.00;99.90;;;;;;5045177;28;20697;-50
2021/05/22 02:56:16;;;;;;;4.23;1.00;;;11.00;99.90;;;;;;5046795;28;20205;-50
2021/05/22 02:58:45;;;;;;;5.37;0.50;;;11.00;99.90;;;;;;5048872;28;20602;-50
2021/05/22 03:01:12;;;;;;;3.93;0.90;;;10.90;99.90;;;;;;5046943;28;20939;-50
2021/05/22 03:03:40;;;;;;;2.20;0.70;;;10.90;99.90;;;;;;5046164;28;20196;-50
2021/05/22 03:06:07;;;;;;;4.20;0.70;;;11.00;99.90;;;;;;5046570;28;20907;-49
2021/05/22 03:08:48;;;;;;;1.83;0.70;;;11.00;99.90;;;;;;5043994;28;20326;-49
2021/05/22 03:11:17;;;;;;;4.33;0.90;;;11.00;99.90;;;;;;5049037;28;20687;-49
2021/05/22 03:13:45;;;;;;;1.33;0.83;;;11.00;99.90;;;;;;5049876;28;20293;-49
2021/05/22 03:16:12;;;;;;;3.50;0.70;;;11.00;99.90;;;;;;5050214;28;20616;-49
2021/05/22 03:18:39;;;;;;;1.73;0.53;;;10.90;99.90;;;;;;5046042;28;20258;-49
2021/05/22 03:21:06;;;;;;;2.33;0.80;;;10.90;99.90;;;;;;5049601;28;20226;-49
2021/05/22 03:23:34;;;;;;;2.00;0.80;;;10.90;99.90;;;;;;5045403;28;20199;-48
2021/05/22 03:26:01;;;;;;;3.57;0.87;;;10.90;99.90;;;;;;5049449;28;20269;-50
2021/05/22 03:28:28;;;;;;;3.53;0.77;;;10.90;99.90;;;;;;5047755;28;20237;-50
2021/05/22 03:30:55;;;;;;;3.10;1.13;;;10.90;99.90;;;;;;5049214;28;20211;-50
2021/05/22 03:33:22;;;;;;;2.80;0.60;;;10.90;99.90;;;;;;5047545;28;20305;-50
2021/05/22 03:35:49;;;;;;;2.83;0.97;;;11.00;99.90;;;;;;5047849;28;20581;-50
2021/05/22 03:38:16;;;;;;;2.70;1.00;;;10.90;99.90;;;;;;5048279;28;20402;-49
2021/05/22 03:40:44;;;;;;;1.47;0.77;;;10.90;99.90;;;;;;5047214;28;20227;-50
2021/05/22 03:43:11;;;;;;;4.97;1.00;;;10.80;99.90;;;;;;5045283;28;20246;-51
2021/05/22 03:45:38;;;;;;;3.93;0.90;;;10.90;99.90;;;;;;5047172;28;20616;-50
2021/05/22 03:48:05;;;;;;;3.10;1.00;;;10.90;99.90;;;;;;5047873;28;20274;-50
2021/05/22 03:50:32;;;;;;;1.90;0.70;;;10.90;99.90;;;;;;5045568;28;20548;-50
2021/05/22 03:52:59;;;;;;;3.90;1.23;;;10.90;99.90;;;;;;5042180;28;20219;-50
2021/05/22 03:55:26;;;;;;;3.83;0.93;;;10.90;99.90;;;;;;5045297;28;20200;-51
2021/05/22 03:57:56;;;;;;;2.63;0.93;;;10.90;99.90;;;;;;5048144;28;20200;-50
2021/05/22 04:00:23;;;;;;;3.83;0.80;;;10.90;99.90;;;;;;5044126;28;20303;-50
2021/05/22 04:02:50;;;;;;;1.33;0.87;;;10.90;99.90;;;;;;5044201;28;20278;-50
2021/05/22 04:05:17;;;;;;;2.47;0.70;;;11.00;99.90;;;;;;5046565;28;20465;-50
2021/05/22 04:07:44;;;;;;;2.10;0.70;;;10.90;99.90;;;;;;5047922;28;20203;-50
2021/05/22 04:10:11;;;;;;;2.83;0.73;;;10.90;99.90;;;;;;5043890;28;20261;-49
2021/05/22 04:12:38;;;;;;;3.70;0.70;;;11.00;99.90;;;;;;5046389;28;20270;-50
2021/05/22 04:15:05;;;;;;;4.87;0.80;;;10.90;99.90;;;;;;5045291;28;20333;-50
2021/05/22 04:17:32;;;;;;;2.87;1.17;;;10.90;99.90;;;;;;5048336;28;20203;-49
2021/05/22 04:19:59;;;;;;;3.70;0.90;;;11.00;99.90;;;;;;5033102;28;20302;-49
2021/05/22 04:22:26;;;;;;;4.90;1.80;;;10.90;99.90;;;;;;5044799;28;20334;-49
2021/05/22 04:24:53;;;;;;;2.87;0.90;;;10.90;99.90;;;;;;5046531;28;20195;-49
2021/05/22 04:27:20;;;;;;;2.07;1.10;;;10.90;99.90;;;;;;5043405;28;20832;-49
2021/05/22 04:29:47;;;;;;;2.63;0.87;;;10.90;99.90;;;;;;5047182;28;20200;-50
2021/05/22 04:32:13;;;;;;;11.53;1.53;;;10.90;99.90;;;;;;5045520;28;20357;-49
2021/05/22 04:34:40;;;;;;;7.60;1.17;;;10.90;99.90;;;;;;5045958;28;20282;-50
2021/05/22 04:37:07;;;;;;;2.97;1.17;;;10.90;99.90;;;;;;5045910;28;20293;-49
2021/05/22 04:39:34;;;;;;;8.60;1.00;;;10.90;99.90;;;;;;5043877;28;20220;-49
2021/05/22 04:42:01;;;;;;;4.90;1.00;;;10.90;99.90;;;;;;5046199;28;20265;-51
2021/05/22 04:44:28;;;;;;;2.03;0.80;;;10.90;99.90;;;;;;5048476;28;20418;-50
2021/05/22 04:46:55;;;;;;;1.50;0.93;;;10.90;99.90;;;;;;5047180;28;20597;-50
2021/05/22 04:49:22;;;;;;;2.77;1.27;;;10.90;99.90;;;;;;5045366;28;20261;-51
2021/05/22 04:51:48;;;;;;;7.00;1.00;;;10.80;99.90;;;;;;5047427;28;20231;-51
2021/05/22 04:54:16;;;;;;;2.37;0.90;;;10.70;99.90;;;;;;5045506;28;20242;-50
2021/05/22 04:56:43;;;;;;;4.20;1.10;;;10.60;99.90;;;;;;5046865;28;20290;-49
2021/05/22 04:59:10;;;;;;;5.13;1.10;;;10.50;99.90;;;;;;5047187;28;20596;-50
2021/05/22 05:01:37;;;;;;;3.17;1.37;;;10.50;99.90;;;;;;5046431;28;20264;-50
2021/05/22 05:04:04;;;;;;;2.40;1.10;;;10.50;99.90;;;;;;5045525;28;20204;-50
2021/05/22 05:06:31;;;;;;;8.57;1.27;;;10.50;99.90;;;;;;5045666;28;20298;-50
2021/05/22 05:08:58;;;;;;;2.90;1.00;;;10.50;99.90;;;;;;5042647;28;20207;-51
2021/05/22 05:11:24;;;;;;;3.03;0.87;;;10.40;99.90;;;;;;5045191;28;20235;-49
2021/05/22 05:13:51;;;;;;;6.63;1.03;;;10.40;99.90;;;;;;5045061;28;20480;-50
2021/05/22 05:16:18;;;;;;;3.33;1.03;;;10.40;99.90;;;;;;5045166;28;20277;-50
2021/05/22 05:18:45;;;;;;;3.60;1.07;;;10.50;99.90;;;;;;5047493;28;20204;-49
2021/05/22 05:21:12;;;;;;;6.17;1.13;;;10.40;99.90;;;;;;5047264;28;20622;-49
2021/05/22 05:23:39;;;;;;;4.40;1.23;;;10.30;99.90;;;;;;5040441;28;20199;-50
2021/05/22 05:26:06;;;;;;;6.30;1.30;;;10.30;99.90;;;;;;5047888;28;20212;-50
2021/05/22 05:28:33;;;;;;;2.07;1.00;;;10.40;99.90;;;;;;5043875;28;20319;-50
2021/05/22 05:31:01;;;;;;;4.17;1.10;;;10.40;99.90;;;;;;5045355;28;20291;-51
2021/05/22 05:33:28;;;;;;;4.23;1.43;;;10.30;99.90;;;;;;5042807;28;20254;-49
2021/05/22 05:35:55;;;;;;;5.93;1.07;;;10.40;99.90;;;;;;5043530;28;20223;-50
2021/05/22 05:38:22;;;;;;;2.03;1.50;;;10.40;99.90;;;;;;5042071;28;20230;-50
2021/05/22 05:40:49;;;;;;;2.23;1.10;;;10.30;99.90;;;;;;5042995;28;20332;-50
2021/05/22 05:43:19;;;;;;;5.33;1.63;;;10.30;99.90;;;;;;5042409;28;20294;-50
2021/05/22 05:45:46;;;;;;;5.20;1.43;;;10.40;99.90;;;;;;5043386;28;20223;-51
2021/05/22 05:48:13;;;;;;;6.03;1.30;;;10.30;99.90;;;;;;5042403;28;20289;-50
2021/05/22 05:50:40;;;;;;;3.23;1.40;;;10.20;99.90;;;;;;5045327;28;20245;-50
2021/05/22 05:53:07;;;;;;;4.53;1.00;;;10.20;99.90;;;;;;5041493;28;20273;-50
2021/05/22 05:55:34;;;;;;;3.47;1.40;;;10.10;99.90;;;;;;5043558;28;20677;-50
2021/05/22 05:58:01;;;;;;;5.10;1.50;;;10.10;99.90;;;;;;5043600;28;20234;-50
2021/05/22 06:00:28;;;;;;;1.73;1.23;;;10.10;99.90;;;;;;5041356;28;20744;-51
2021/05/22 06:02:55;;;;;;;3.00;1.40;;;10.10;99.90;;;;;;5043270;28;20280;-49
2021/05/22 06:05:22;;;;;;;5.10;1.43;;;10.10;99.90;;;;;;5042608;28;20314;-50
2021/05/22 06:07:49;;;;;;;3.03;1.30;;;10.20;99.90;;;;;;5043842;28;20216;-50
2021/05/22 06:10:16;;;;;;;4.53;1.20;;;10.20;99.90;;;;;;5042355;28;20332;-49
2021/05/22 06:12:43;;;;;;;3.57;1.30;;;10.10;99.90;;;;;;5039141;28;20653;-50
2021/05/22 06:17:44;;;;;;;3.33;1.20;;;10.10;99.90;;;;;;5049316;28;20434;-50
2021/05/22 06:20:11;;;;;;;4.93;1.20;;;10.10;99.90;;;;;;5046605;28;20200;-51
2021/05/22 06:22:38;;;;;;;5.17;1.40;;;10.10;99.90;;;;;;5053137;28;20645;-50
2021/05/22 06:25:06;;;;;;;3.47;1.40;;;10.10;99.90;;;;;;5046776;28;20223;-50
2021/05/22 06:27:33;;;;;;;5.83;2.00;;;10.00;99.90;;;;;;5047538;28;20232;-49
2021/05/22 06:30:00;;;;;;;1.73;1.20;;;10.00;99.90;;;;;;5046846;28;20206;-50
2021/05/22 06:32:28;;;;;;;3.50;1.53;;;10.10;99.90;;;;;;5046197;28;20316;-50
2021/05/22 06:34:55;;;;;;;4.20;1.20;;;10.10;99.90;;;;;;5048727;28;20192;-51
2021/05/22 06:37:23;;;;;;;2.27;1.37;;;10.10;99.90;;;;;;5046439;28;20203;-50
2021/05/22 06:39:51;;;;;;;3.50;1.77;;;10.10;99.90;;;;;;5046745;28;20233;-51
2021/05/22 06:42:18;;;;;;;5.90;1.30;;;10.20;99.90;;;;;;5045320;28;20293;-50
2021/05/22 06:44:54;;;;;;;4.50;1.80;;;10.10;99.90;;;;;;5048081;28;20265;-50
2021/05/22 06:47:21;;;;;;;3.37;1.30;;;10.20;99.90;;;;;;5044658;28;20302;-50
2021/05/22 06:49:48;;;;;;;5.23;1.73;;;10.20;99.90;;;;;;5047750;28;20675;-51
2021/05/22 06:52:15;;;;;;;3.90;1.30;;;10.20;99.90;;;;;;5045099;28;20768;-51
2021/05/22 06:54:42;;;;;;;3.53;2.00;;;10.20;99.90;;;;;;5044413;28;20681;-49
2021/05/22 06:57:09;;;;;;;4.57;1.23;;;10.20;99.90;;;;;;5045888;28;20297;-50
2021/05/22 06:59:36;;;;;;;4.27;1.20;;;10.20;99.90;;;;;;5045559;28;20297;-50
2021/05/22 07:02:03;;;;;;;3.97;1.27;;;10.20;99.90;;;;;;5044873;28;20261;-49
2021/05/22 07:04:30;;;;;;;3.17;1.13;;;10.20;99.90;;;;;;5048814;28;20405;-49
2021/05/22 07:06:57;;;;;;;4.33;1.50;;;10.30;99.90;;;;;;5050735;28;20316;-50
2021/05/22 07:09:24;;;;;;;2.50;1.20;;;10.20;99.90;;;;;;5049503;28;20261;-50
2021/05/22 07:11:52;;;;;;;3.37;1.87;;;10.30;99.90;;;;;;5045538;28;20303;-50
2021/05/22 07:14:19;;;;;;;3.13;1.10;;;10.20;99.90;;;;;;5045943;28;20250;-49
2021/05/22 07:16:55;;;;;;;4.67;1.23;;;10.10;99.90;;;;;;5045458;28;20650;-50
2021/05/22 07:19:22;;;;;;;3.63;1.40;;;10.20;99.90;;;;;;5046710;28;20609;-50
2021/05/22 07:21:50;;;;;;;3.03;1.50;;;10.20;99.90;;;;;;5046969;28;20288;-50
2021/05/22 07:24:19;;;;;;;3.63;1.20;;;10.20;99.90;;;;;;5047587;28;20210;-50
2021/05/22 07:26:46;;;;;;;5.07;1.23;;;10.00;99.90;;;;;;5048331;28;20210;-50
2021/05/22 07:29:14;;;;;;;3.37;1.27;;;10.20;99.90;;;;;;5048650;28;22504;-52
2021/05/22 07:31:42;;;;;;;3.87;1.13;;;10.10;99.90;;;;;;5047973;28;20319;-50
2021/05/22 07:34:10;;;;;;;2.57;1.47;;;10.10;99.90;;;;;;5048767;28;20251;-50
2021/05/22 07:36:38;;;;;;;3.67;1.20;;;10.20;99.90;;;;;;5050558;28;20200;-50
2021/05/22 07:39:09;;;;;;;3.63;1.23;;;10.20;99.90;;;;;;5051678;28;20530;-51
2021/05/22 07:41:42;;;;;;;4.90;1.40;;;10.20;99.90;;;;;;5053224;28;20225;-49
2021/05/22 07:44:09;;;;;;;3.10;1.23;;;10.20;99.90;;;;;;5047993;28;20207;-50
2021/05/22 07:46:36;;;;;;;2.27;1.53;;;10.20;99.90;;;;;;5049524;28;20318;-49
2021/05/22 07:49:03;;;;;;;4.23;1.53;;;10.20;99.90;;;;;;5052837;28;20662;-51
2021/05/22 07:51:31;;;;;;;4.13;1.27;;;10.20;99.90;;;;;;5048951;28;20290;-49
2021/05/22 07:53:57;;;;;;;3.20;1.40;;;10.20;99.90;;;;;;5043447;28;20262;-50
2021/05/22 07:56:24;;;;;;;2.47;1.23;;;10.20;99.90;;;;;;5043053;28;20265;-50
2021/05/22 07:58:51;;;;;;;4.87;1.90;;;10.20;99.90;;;;;;5045006;28;20311;-50
2021/05/22 08:01:18;;;;;;;3.77;1.60;;;10.30;99.90;;;;;;5045365;28;20203;-51
2021/05/22 08:03:45;;;;;;;2.30;1.47;;;10.20;99.90;;;;;;5048462;28;20200;-50
2021/05/22 08:06:14;;;;;;;3.67;1.50;;;10.30;99.90;;;;;;5049799;28;20211;-51
2021/05/22 08:08:43;;;;;;;2.67;1.30;;;10.30;99.90;;;;;;5049413;28;20205;-48
2021/05/22 08:11:12;;;;;;;1.67;1.50;;;10.20;99.90;;;;;;5055183;28;20202;-50
2021/05/22 08:13:40;;;;;;;3.13;1.33;;;10.30;99.90;;;;;;5046580;28;20311;-49
2021/05/22 08:16:08;;;;;;;1.30;1.20;;;10.40;99.90;;;;;;5047371;28;20198;-50
2021/05/22 08:18:36;;;;;;;3.80;1.37;;;10.30;99.90;;;;;;5048316;28;20199;-50
2021/05/22 08:21:04;;;;;;;3.50;1.50;;;10.30;99.90;;;;;;5049654;28;20204;-51
2021/05/22 08:23:31;;;;;;;2.27;1.20;;;10.30;99.90;;;;;;5046229;28;20207;-49
2021/05/22 08:25:57;;;;;;;3.77;1.57;;;10.30;99.90;;;;;;5050331;28;20282;-49
2021/05/22 08:28:45;;;;;;;3.93;1.80;;;10.20;99.90;;;;;;5046947;28;20714;-49
2021/05/22 08:31:11;;;;;;;3.47;1.50;;;10.30;99.90;;;;;;5045302;28;20246;-50
2021/05/22 08:33:38;;;;;;;4.90;1.80;;;10.30;99.90;;;;;;5047080;28;20329;-49
2021/05/22 08:36:07;;;;;;;5.93;1.80;;;10.30;99.90;;;;;;5045905;28;20338;-50
2021/05/22 08:38:34;;;;;;;3.53;1.87;;;10.40;99.90;;;;;;5044081;28;20242;-50
2021/05/22 08:41:03;;;;;;;3.10;1.73;;;10.40;99.90;;;;;;5046001;28;20199;-50
2021/05/22 08:43:30;;;;;;;3.70;1.97;;;10.50;99.90;;;;;;5048434;28;20278;-50
2021/05/22 08:45:56;;;;;;;3.47;2.30;;;10.50;99.90;;;;;;5047058;28;20245;-50
2021/05/22 08:48:24;;;;;;;3.43;2.60;;;10.40;99.90;;;;;;5045483;28;20323;-50
2021/05/22 08:50:51;;;;;;;2.10;1.87;;;10.50;99.90;;;;;;5047314;28;20313;-50
2021/05/22 08:53:21;;;;;;;2.03;1.83;;;10.50;99.90;;;;;;5046013;28;20701;-50
2021/05/22 08:55:48;;;;;;;3.33;2.00;;;10.50;99.90;;;;;;5046563;28;20719;-51
2021/05/22 08:58:15;;;;;;;2.40;1.90;;;10.60;99.90;;;;;;5044360;28;20281;-51
2021/05/22 09:00:42;;;;;;;4.27;2.63;;;10.70;99.90;;;;;;5046539;28;20248;-51
2021/05/22 09:03:11;;;;;;;2.80;1.80;;;10.80;99.90;;;;;;5042644;28;20318;-50
2021/05/22 09:05:39;;;;;;;2.70;2.00;;;10.80;99.90;;;;;;5046767;28;20307;-50
2021/05/22 09:08:10;;;;;;;2.47;1.70;;;10.80;99.90;;;;;;5048312;28;20251;-50
2021/05/22 09:10:40;;;;;;;2.57;2.27;;;10.80;99.90;;;;;;5047292;28;20227;-50
2021/05/22 09:13:09;;;;;;;2.20;2.00;;;10.70;99.90;;;;;;5047501;28;20692;-50
2021/05/22 09:15:43;;;;;;;3.07;1.70;;;10.90;99.90;;;;;;5048626;28;20780;-49
2021/05/22 09:18:14;;;;;;;1.80;1.70;;;10.80;99.90;;;;;;5049128;28;20278;-50
2021/05/22 09:20:43;;;;;;;2.63;1.90;;;10.90;99.90;;;;;;5049446;28;20642;-50
2021/05/22 09:23:18;;;;;;;2.57;1.97;;;10.90;99.90;;;;;;5046139;28;20204;-50
2021/05/22 09:25:51;;;;;;;2.20;2.00;;;10.90;99.90;;;;;;5047082;28;20244;-50
2021/05/22 09:28:29;;;;;;;2.67;1.60;;;11.00;99.90;;;;;;5052922;28;20574;-50
2021/05/22 09:30:58;;;;;;;4.07;1.90;;;11.20;99.90;;;;;;5051576;28;20234;-50
2021/05/22 09:33:27;;;;;;;3.20;1.70;;;11.10;99.90;;;;;;5047597;28;20227;-51
2021/05/22 09:36:13;;;;;;;2.83;1.90;;;11.20;99.90;;;;;;5052274;28;20204;-50
2021/05/22 09:38:45;;;;;;;3.83;2.00;;;11.10;99.90;;;;;;5051360;28;20246;-49
2021/05/22 09:41:20;;;;;;;2.53;2.30;;;11.10;99.90;;;;;;5050836;28;20712;-50
2021/05/22 09:44:11;;;;;;;5.57;2.00;;;11.10;99.90;;;;;;5046655;28;20284;-50
2021/05/22 09:46:44;;;;;;;4.60;1.70;;;11.10;99.90;;;;;;5044824;28;20270;-50
2021/05/22 09:49:23;;;;;;;1.90;1.73;;;11.10;99.90;;;;;;5050241;28;20214;-49
2021/05/22 09:52:01;;;;;;;5.97;2.10;;;11.10;99.90;;;;;;5056025;28;20272;-49
2021/05/22 09:54:53;;;;;;;2.07;1.50;;;11.20;99.90;;;;;;5055001;28;20338;-52
2021/05/22 09:57:32;;;;;;;3.53;1.93;;;11.20;99.90;;;;;;5047190;28;20207;-50
2021/05/22 10:00:11;;;;;;;5.07;1.87;;;11.20;99.90;;;;;;5052330;28;20206;-50
2021/05/22 10:02:49;;;;;;;3.47;2.10;;;11.20;99.90;;;;;;5050770;28;20199;-49
2021/05/22 10:05:29;;;;;;;2.37;2.17;;;11.20;99.90;;;;;;5052628;28;20669;-49
2021/05/22 10:07:57;;;;;;;6.53;2.90;;;11.20;99.90;;;;;;5046636;28;20252;-49
2021/05/22 10:10:41;;;;;;;4.37;2.03;;;11.20;99.90;;;;;;5052572;28;20196;-49
2021/05/22 10:13:08;;;;;;;6.60;2.20;;;11.30;99.90;;;;;;5048683;28;20259;-50
2021/05/22 10:15:35;;;;;;;4.20;2.43;;;11.10;99.90;;;;;;5042489;28;20711;-50
2021/05/22 10:18:04;;;;;;;2.77;2.30;;;11.10;99.90;;;;;;5046892;28;20211;-50
2021/05/22 10:20:31;;;;;;;3.40;2.17;;;11.20;99.90;;;;;;5049738;28;21577;-50
2021/05/22 10:22:59;;;;;;;2.30;2.10;;;11.20;99.90;;;;;;5048374;28;20240;-51
2021/05/22 10:25:27;;;;;;;3.63;2.13;;;11.10;99.90;;;;;;5051965;28;20230;-49
2021/05/22 10:27:55;;;;;;;3.20;2.10;;;11.20;99.90;;;;;;5049043;28;20258;-50
2021/05/22 10:30:22;;;;;;;4.23;2.13;;;11.30;99.90;;;;;;5050464;28;20273;-50
2021/05/22 10:32:49;;;;;;;2.77;2.57;;;11.40;99.90;;;;;;5046833;28;20543;-50
2021/05/22 10:35:24;;;;;;;2.30;2.00;;;11.40;99.90;;;;;;5050668;28;20302;-50
2021/05/22 10:37:52;;;;;;;2.67;2.40;;;11.30;99.90;;;;;;5050389;28;20273;-51
2021/05/22 10:40:46;;;;;;;2.47;1.87;;;11.40;99.90;;;;;;5046665;28;20204;-50
2021/05/22 10:43:14;;;;;;;2.40;2.20;;;11.40;99.90;;;;;;5041667;28;20287;-50
2021/05/22 10:45:43;;;;;;;3.77;2.17;;;11.30;99.90;;;;;;5047848;28;20207;-50
2021/05/22 10:48:16;;;;;;;4.03;2.20;;;11.40;99.90;;;;;;5050458;28;20238;-51
2021/05/22 10:50:49;;;;;;;1.90;1.80;;;11.40;99.90;;;;;;5051188;28;20192;-50
2021/05/22 10:53:21;;;;;;;3.50;1.93;;;11.30;99.90;;;;;;5048032;28;20250;-50
2021/05/22 10:56:06;;;;;;;3.87;2.43;;;11.30;99.90;;;;;;5053015;28;20294;-50
2021/05/22 10:58:38;;;;;;;4.40;2.40;;;11.30;99.90;;;;;;5051676;28;20460;-50
2021/05/22 11:01:24;;;;;;;2.33;2.13;;;11.40;99.90;;;;;;5048185;28;20188;-50
2021/05/22 11:04:16;;;;;;;2.97;2.00;;;11.40;99.90;;;;;;5048013;28;20324;-50
2021/05/22 11:06:45;;;;;;;3.50;2.00;;;11.40;99.90;;;;;;5047482;28;20204;-50
2021/05/22 11:09:25;;;;;;;2.17;1.97;;;11.30;99.90;;;;;;5047521;28;20670;-50
2021/05/22 11:11:56;;;;;;;3.03;2.30;;;11.40;99.90;;;;;;5048060;28;20283;-50
2021/05/22 11:14:43;;;;;;;2.70;1.83;;;11.50;99.90;;;;;;5054186;28;20247;-50
2021/05/22 11:17:19;;;;;;;1.80;1.70;;;11.40;99.90;;;;;;5049555;28;21016;-51
2021/05/22 11:20:10;;;;;;;2.30;2.10;;;11.40;99.90;;;;;;5052580;28;20272;-57
2021/05/22 11:22:41;;;;;;;2.40;1.73;;;11.40;99.90;;;;;;5040203;28;20222;-50
2021/05/22 11:25:10;;;;;;;2.00;1.80;;;11.50;99.90;;;;;;5049499;28;20337;-51
2021/05/22 11:28:09;;;;;;;1.90;1.80;;;11.70;99.90;;;;;;5049636;28;20800;-50
2021/05/22 11:30:33;;;;;;;2.23;2.00;;;11.80;99.90;;;;;;5050336;28;20297;-50
2021/05/22 11:33:04;;;;;;;2.67;1.50;;;11.70;99.90;;;;;;5046160;28;20299;-50
2021/05/22 11:35:40;;;;;;;2.80;1.80;;;11.80;99.90;;;;;;5048115;28;20220;-50
2021/05/22 11:38:22;;;;;;;2.40;2.00;;;11.80;99.90;;;;;;5049206;28;20259;-50
2021/05/22 11:41:06;;;;;;;3.90;1.93;;;12.00;99.90;;;;;;5049655;28;20265;-50
2021/05/22 11:43:39;;;;;;;4.47;1.83;;;12.00;99.90;;;;;;5049676;28;20196;-50
2021/05/22 11:46:10;;;;;;;2.30;1.90;;;12.00;99.90;;;;;;5049164;28;21103;-50
2021/05/22 11:48:43;;;;;;;3.73;1.83;;;12.00;99.90;;;;;;5051839;28;20203;-50
2021/05/22 11:51:25;;;;;;;1.87;1.70;;;12.10;99.90;;;;;;5047584;28;20375;-50
2021/05/22 11:54:03;;;;;;;6.50;1.77;;;12.30;99.90;;;;;;5046202;28;20204;-50
2021/05/22 11:56:39;;;;;;;2.33;1.50;;;12.20;99.90;;;;;;5049987;28;20231;-51
2021/05/22 11:59:12;;;;;;;3.43;1.60;;;12.10;99.90;;;;;;5050988;28;20277;-50
2021/05/22 12:01:43;;;;;;;3.00;1.57;;;11.90;99.90;;;;;;5047717;28;20211;-50
2021/05/22 12:04:12;;;;;;;2.73;1.83;;;11.90;99.90;;;;;;5047967;28;20200;-50
2021/05/22 12:06:41;;;;;;;3.30;1.50;;;12.00;99.90;;;;;;5049719;28;20599;-50
2021/05/22 12:09:17;;;;;;;6.33;2.03;;;12.10;99.90;;;;;;5050438;28;20656;-50
2021/05/22 12:12:04;;;;;;;3.87;2.00;;;12.00;99.90;;;;;;5049618;28;20231;-50
2021/05/22 12:14:49;;;;;;;5.27;2.07;;;12.00;99.90;;;;;;5049546;28;20554;-50
2021/05/22 12:17:19;;;;;;;5.00;1.97;;;12.10;99.90;;;;;;5050818;28;20226;-50
2021/05/22 12:19:49;;;;;;;3.77;1.90;;;12.20;99.90;;;;;;5051363;28;20204;-50
2021/05/22 12:22:27;;;;;;;2.10;1.90;;;12.10;99.90;;;;;;5050540;28;20198;-50
2021/05/22 12:24:55;;;;;;;2.30;1.97;;;11.90;99.90;;;;;;5052598;28;20610;-50
2021/05/22 12:27:22;;;;;;;2.43;1.87;;;12.00;99.90;;;;;;5052630;28;20238;-51
2021/05/22 12:29:54;;;;;;;3.47;2.60;;;12.10;99.90;;;;;;5050727;28;20213;-50
2021/05/22 12:32:22;;;;;;;3.50;2.67;;;12.00;99.90;;;;;;5050889;28;20258;-50
2021/05/22 12:35:22;;;;;;;2.93;2.60;;;12.00;99.90;;;;;;5049235;28;20258;-50
2021/05/22 12:37:51;;;;;;;2.93;2.63;;;11.80;99.90;;;;;;5035743;28;20222;-50
2021/05/22 12:40:18;;;;;;;8.57;3.43;;;11.80;99.90;;;;;;5046648;28;20228;-49
2021/05/22 12:42:52;;;;;;;2.80;2.60;;;11.70;99.90;;;;;;5046553;28;20202;-50
2021/05/22 12:45:22;;;;;;;3.77;2.90;;;11.80;99.90;;;;;;5049728;28;20672;-57
2021/05/22 12:47:51;;;;;;;3.90;3.30;;;11.80;99.90;;;;;;5048787;28;20214;-50
2021/05/22 12:50:30;;;;;;;3.87;3.33;;;11.80;99.90;;;;;;5046400;28;20201;-50
2021/05/22 12:53:03;;;;;;;5.40;3.00;;;12.00;99.90;;;;;;5048345;28;20205;-49
2021/05/22 12:55:36;;;;;;;13.77;3.40;;;12.00;99.90;;;;;;5047185;28;20787;-50
2021/05/22 12:58:08;;;;;;;4.90;4.00;;;12.10;99.90;;;;;;5050677;28;20195;-50
2021/05/22 13:00:35;;;;;;;5.03;3.70;;;12.00;99.90;;;;;;5050339;28;20205;-50
2021/05/22 13:03:05;;;;;;;4.03;3.47;;;12.10;99.90;;;;;;5048572;28;20201;-50